Time;durP1;ratioP1;P1;durP2;ratioP2;P2;SDS_P1;SDS_P2;PMS_P1;PMS_P2;Temp;Humidity;BMP_temperature;BMP_pressure;BME280_temperature;BME280_humidity;BME280_pressure;Samples;Min_cycle;Max_cycle;Signal;HPM_P1;HPM_P2
2021/11/30 00:01:53;;;;;;;3.70;1.70;;;6.80;76.90;;;;;;5054188;28;20028;-69
2021/11/30 00:04:19;;;;;;;5.10;1.58;;;6.80;77.30;;;;;;5072610;28;20043;-75
2021/11/30 00:06:47;;;;;;;3.22;1.60;;;6.80;78.00;;;;;;5072669;28;20089;-75
2021/11/30 00:12:14;;;;;;;6.80;1.80;;;6.80;78.00;;;;;;5030666;28;20044;-74
2021/11/30 00:14:41;;;;;;;2.70;1.25;;;6.80;77.90;;;;;;5072548;28;20042;-71
2021/11/30 00:17:09;;;;;;;6.53;1.88;;;6.70;77.90;;;;;;5072301;28;20013;-76
2021/11/30 00:19:35;;;;;;;3.15;1.80;;;6.70;77.70;;;;;;5072348;28;20162;-69
2021/11/30 00:22:03;;;;;;;4.18;1.80;;;6.70;77.80;;;;;;5054179;28;20032;-71
2021/11/30 00:24:30;;;;;;;4.75;1.30;;;6.70;77.70;;;;;;5072793;28;20052;-80
2021/11/30 00:26:58;;;;;;;4.72;1.40;;;6.70;78.00;;;;;;5073127;28;20037;-78
2021/11/30 00:29:24;;;;;;;6.15;1.60;;;6.70;77.60;;;;;;5073253;28;20035;-79
2021/11/30 00:31:50;;;;;;;4.43;1.65;;;6.70;78.10;;;;;;5073868;28;20028;-81
2021/11/30 00:34:16;;;;;;;3.50;1.92;;;6.70;77.80;;;;;;5074047;28;20021;-75
2021/11/30 00:36:42;;;;;;;2.72;1.63;;;6.70;77.60;;;;;;5056136;28;20103;-74
2021/11/30 00:39:09;;;;;;;2.60;1.30;;;6.70;77.70;;;;;;5073819;28;20082;-79
2021/11/30 00:41:34;;;;;;;2.83;1.60;;;6.70;78.00;;;;;;5073626;28;20098;-80
2021/11/30 00:44:01;;;;;;;3.30;1.52;;;6.60;77.70;;;;;;5073764;28;20017;-80
2021/11/30 00:46:34;;;;;;;3.08;1.80;;;6.60;77.90;;;;;;5057538;28;20028;-75
2021/11/30 00:49:05;;;;;;;6.85;4.35;;;6.60;77.70;;;;;;5075364;28;20042;-81
2021/11/30 00:51:33;;;;;;;8.05;4.03;;;6.60;78.30;;;;;;5074950;28;20036;-75
2021/11/30 00:54:00;;;;;;;8.93;3.78;;;6.60;78.50;;;;;;5078253;28;20108;-75
2021/11/30 00:56:26;;;;;;;8.05;2.47;;;6.60;78.50;;;;;;5078032;28;20059;-81
2021/11/30 00:58:53;;;;;;;6.47;2.80;;;6.60;78.30;;;;;;5077736;28;20044;-74
2021/11/30 01:01:22;;;;;;;5.95;2.10;;;6.60;78.40;;;;;;5077860;28;20103;-81
2021/11/30 01:03:48;;;;;;;3.35;2.00;;;6.60;77.80;;;;;;5078684;28;20079;-80
2021/11/30 01:06:15;;;;;;;4.05;1.83;;;6.60;78.60;;;;;;5085270;28;20036;-73
2021/11/30 01:08:40;;;;;;;5.47;1.73;;;6.60;78.90;;;;;;5091881;28;20032;-67
2021/11/30 01:11:06;;;;;;;5.97;1.95;;;6.60;78.80;;;;;;5093012;28;20032;-71
2021/11/30 01:13:33;;;;;;;3.85;1.75;;;6.60;78.80;;;;;;5080498;28;20024;-75
2021/11/30 01:16:00;;;;;;;3.25;1.88;;;6.60;79.20;;;;;;5058569;28;20024;-76
2021/11/30 01:18:27;;;;;;;4.53;2.22;;;6.50;79.20;;;;;;5076023;28;20112;-75
2021/11/30 01:20:53;;;;;;;3.28;1.80;;;6.50;79.30;;;;;;5094793;22;20103;-74
2021/11/30 01:23:20;;;;;;;8.25;1.85;;;6.50;79.20;;;;;;5136535;27;20161;-71
2021/11/30 01:25:46;;;;;;;3.08;1.70;;;6.50;79.40;;;;;;5136412;27;20773;-72
2021/11/30 01:28:12;;;;;;;3.95;1.52;;;6.50;79.00;;;;;;5136283;27;20066;-72
2021/11/30 01:30:38;;;;;;;3.05;1.60;;;6.40;78.80;;;;;;5137933;27;20164;-71
2021/11/30 01:33:06;;;;;;;3.20;1.63;;;6.50;78.80;;;;;;5157268;27;20026;-72
2021/11/30 01:35:32;;;;;;;4.75;2.00;;;6.50;79.00;;;;;;5156971;27;20026;-71
2021/11/30 01:37:58;;;;;;;4.85;1.63;;;6.50;79.00;;;;;;5156860;27;20596;-71
2021/11/30 01:40:26;;;;;;;3.15;1.77;;;6.40;78.70;;;;;;5156764;27;20105;-73
2021/11/30 01:42:54;;;;;;;4.18;1.88;;;6.40;78.90;;;;;;5156900;27;20015;-71
2021/11/30 01:50:38;;;;;;;4.40;2.10;;;6.30;79.20;;;;;;5157481;27;20050;-73
2021/11/30 01:53:05;;;;;;;5.63;1.92;;;6.30;79.00;;;;;;5156805;27;20038;-71
2021/11/30 01:55:31;;;;;;;4.38;1.92;;;6.30;79.10;;;;;;5156676;27;20023;-71
2021/11/30 01:57:58;;;;;;;2.92;1.60;;;6.30;79.00;;;;;;5156588;27;20449;-71
2021/11/30 02:00:25;;;;;;;3.78;1.70;;;6.30;79.20;;;;;;5156518;27;20122;-72
2021/11/30 02:02:51;;;;;;;2.83;1.52;;;6.30;79.00;;;;;;5156119;27;20079;-72
2021/11/30 02:05:17;;;;;;;3.65;1.80;;;6.30;79.10;;;;;;5156543;27;20102;-71
2021/11/30 02:07:43;;;;;;;3.38;1.73;;;6.20;79.00;;;;;;5156494;27;20456;-71
2021/11/30 02:10:11;;;;;;;3.58;1.70;;;6.20;79.20;;;;;;5156490;27;20062;-72
2021/11/30 02:12:39;;;;;;;5.07;1.95;;;6.20;79.20;;;;;;5156369;27;20099;-71
2021/11/30 02:15:10;;;;;;;4.55;1.88;;;6.20;79.00;;;;;;5156565;27;20022;-72
2021/11/30 02:17:37;;;;;;;3.47;1.90;;;6.20;79.10;;;;;;5156527;27;20042;-72
2021/11/30 02:20:05;;;;;;;3.17;1.92;;;6.20;79.10;;;;;;5156545;27;20049;-72
2021/11/30 02:22:31;;;;;;;4.45;2.00;;;6.20;79.10;;;;;;5156094;27;20081;-73
2021/11/30 02:24:56;;;;;;;6.22;1.85;;;6.20;78.90;;;;;;5137640;27;20026;-73
2021/11/30 02:27:23;;;;;;;3.47;1.80;;;6.20;78.50;;;;;;5156311;27;20019;-71
2021/11/30 02:29:49;;;;;;;3.03;1.63;;;6.20;78.40;;;;;;5155906;27;20054;-72
2021/11/30 02:32:15;;;;;;;4.72;1.80;;;6.20;78.40;;;;;;5156150;27;20023;-72
2021/11/30 02:34:41;;;;;;;3.85;1.63;;;6.20;78.20;;;;;;5156043;27;20019;-72
2021/11/30 02:37:14;;;;;;;4.15;1.88;;;6.20;78.00;;;;;;5138028;27;20015;-72
2021/11/30 02:39:40;;;;;;;3.35;1.75;;;6.20;78.20;;;;;;5156489;27;20030;-72
2021/11/30 02:42:07;;;;;;;3.25;1.85;;;6.30;78.60;;;;;;5155732;27;20467;-72
2021/11/30 02:44:35;;;;;;;3.42;1.88;;;6.20;78.00;;;;;;5155713;27;20063;-71
2021/11/30 02:47:05;;;;;;;5.78;1.95;;;6.20;77.90;;;;;;5155731;27;20030;-72
2021/11/30 02:49:34;;;;;;;2.97;1.67;;;6.20;77.70;;;;;;5155489;27;20428;-71
2021/11/30 02:52:07;;;;;;;5.00;2.22;;;6.20;77.50;;;;;;5155370;27;20044;-72
2021/11/30 02:54:35;;;;;;;3.65;1.95;;;6.20;77.40;;;;;;5155738;27;20375;-72
2021/11/30 02:57:05;;;;;;;3.45;1.75;;;6.20;78.00;;;;;;5155400;27;20027;-72
2021/11/30 02:59:34;;;;;;;4.10;2.05;;;6.20;78.00;;;;;;5136568;27;20023;-72
2021/11/30 03:02:14;;;;;;;6.10;2.22;;;6.20;77.70;;;;;;5155310;27;20491;-72
2021/11/30 03:04:42;;;;;;;3.15;1.70;;;6.20;77.70;;;;;;5155188;27;20035;-72
2021/11/30 03:07:13;;;;;;;5.22;1.95;;;6.20;77.60;;;;;;5155220;27;20018;-72
2021/11/30 03:09:40;;;;;;;4.63;2.03;;;6.20;78.00;;;;;;5155246;27;20033;-72
2021/11/30 03:12:07;;;;;;;3.45;1.95;;;6.20;77.90;;;;;;5155324;27;20390;-71
2021/11/30 03:14:33;;;;;;;5.40;2.25;;;6.20;77.70;;;;;;5154632;27;20479;-72
2021/11/30 03:16:59;;;;;;;5.78;2.20;;;6.20;77.70;;;;;;5155456;27;20026;-72
2021/11/30 03:19:28;;;;;;;5.68;2.30;;;6.20;78.00;;;;;;5155241;27;20058;-73
2021/11/30 03:21:55;;;;;;;4.68;2.00;;;6.20;77.90;;;;;;5154611;27;20087;-71
2021/11/30 03:24:21;;;;;;;4.30;2.05;;;6.20;77.60;;;;;;5154916;27;20102;-72
2021/11/30 03:26:47;;;;;;;4.47;2.00;;;6.10;77.70;;;;;;5154806;27;20054;-72
2021/11/30 03:29:13;;;;;;;6.43;2.30;;;6.10;77.80;;;;;;5154793;27;20038;-72
2021/11/30 03:34:13;;;;;;;4.50;1.95;;;6.10;78.00;;;;;;5155151;27;20443;-73
2021/11/30 03:36:40;;;;;;;4.47;2.00;;;6.10;79.20;;;;;;5136921;27;20026;-75
2021/11/30 03:39:10;;;;;;;3.95;2.10;;;6.10;78.70;;;;;;5154526;27;20030;-72
2021/11/30 03:41:36;;;;;;;5.20;2.40;;;6.10;78.70;;;;;;5154543;27;20026;-71
2021/11/30 03:44:04;;;;;;;5.18;2.25;;;6.10;78.90;;;;;;5154558;27;20022;-72
2021/11/30 03:46:31;;;;;;;3.58;1.98;;;6.10;79.30;;;;;;5154505;27;20075;-72
2021/11/30 03:48:57;;;;;;;4.78;2.20;;;6.10;79.20;;;;;;5135901;27;20129;-72
2021/11/30 03:51:23;;;;;;;4.25;2.13;;;6.10;79.70;;;;;;5154216;27;20023;-72
2021/11/30 03:53:49;;;;;;;4.60;1.90;;;6.10;79.60;;;;;;5154426;27;20026;-71
2021/11/30 03:56:14;;;;;;;3.40;2.00;;;6.10;79.60;;;;;;5154496;27;20099;-71
2021/11/30 03:58:40;;;;;;;4.88;2.15;;;6.10;79.40;;;;;;5154473;27;20015;-72
2021/11/30 04:01:06;;;;;;;4.53;2.00;;;6.10;79.80;;;;;;5154209;27;20046;-72
2021/11/30 04:03:34;;;;;;;4.85;2.20;;;6.10;79.80;;;;;;5135742;27;20512;-72
2021/11/30 04:06:03;;;;;;;4.15;2.15;;;6.10;80.20;;;;;;5154369;27;20079;-71
2021/11/30 04:08:28;;;;;;;3.30;2.10;;;6.00;79.30;;;;;;5154338;27;20053;-73
2021/11/30 04:10:54;;;;;;;7.53;3.88;;;6.00;80.10;;;;;;5153999;27;20070;-71
2021/11/30 04:13:20;;;;;;;4.53;2.80;;;6.00;80.10;;;;;;5154079;27;20097;-71
2021/11/30 04:15:46;;;;;;;5.45;2.13;;;6.00;80.10;;;;;;5154144;27;20092;-71
2021/11/30 04:18:11;;;;;;;5.93;2.67;;;6.00;80.40;;;;;;5154272;27;20023;-71
2021/11/30 04:20:37;;;;;;;5.45;2.40;;;6.00;80.60;;;;;;5154101;27;20396;-71
2021/11/30 04:23:04;;;;;;;5.47;2.55;;;5.90;80.40;;;;;;5153808;27;20088;-71
2021/11/30 04:25:30;;;;;;;5.03;2.75;;;5.90;80.80;;;;;;5154130;27;20429;-71
2021/11/30 04:27:55;;;;;;;4.35;2.30;;;5.90;80.80;;;;;;5157531;27;20110;-72
2021/11/30 04:30:21;;;;;;;5.57;2.42;;;5.90;81.10;;;;;;5158328;27;20453;-72
2021/11/30 04:32:48;;;;;;;4.28;2.50;;;5.90;80.80;;;;;;5158314;27;20067;-72
2021/11/30 04:35:15;;;;;;;4.88;2.35;;;5.90;81.10;;;;;;5139641;27;20031;-72
2021/11/30 04:37:41;;;;;;;6.13;2.30;;;5.80;81.10;;;;;;5158201;27;20025;-71
2021/11/30 04:40:08;;;;;;;4.50;2.28;;;5.80;81.20;;;;;;5158217;27;20491;-72
2021/11/30 04:42:34;;;;;;;4.60;2.42;;;5.80;81.40;;;;;;5158529;27;20023;-72
2021/11/30 04:47:32;;;;;;;5.15;2.60;;;5.80;81.50;;;;;;5159228;27;20555;-72
2021/11/30 04:50:07;;;;;;;6.75;2.42;;;5.80;81.40;;;;;;5158100;27;20023;-71
2021/11/30 04:52:33;;;;;;;4.68;2.40;;;5.80;81.20;;;;;;5157911;27;20387;-72
2021/11/30 04:54:59;;;;;;;4.95;2.63;;;5.80;81.80;;;;;;5158225;27;20042;-73
2021/11/30 04:57:26;;;;;;;5.07;2.78;;;5.80;81.80;;;;;;5158832;27;20014;-73
2021/11/30 04:59:51;;;;;;;5.85;2.83;;;5.80;81.80;;;;;;5157879;27;20030;-72
2021/11/30 05:02:18;;;;;;;8.52;2.80;;;5.90;82.10;;;;;;5157783;27;20383;-72
2021/11/30 05:04:47;;;;;;;6.22;2.83;;;5.90;81.80;;;;;;5157725;27;20030;-73
2021/11/30 05:07:17;;;;;;;5.20;2.80;;;5.80;81.80;;;;;;5157865;27;20055;-71
2021/11/30 05:09:43;;;;;;;5.60;2.80;;;5.80;82.20;;;;;;5138938;27;20026;-73
2021/11/30 05:12:10;;;;;;;8.15;3.03;;;5.80;82.50;;;;;;5157672;27;20101;-72
2021/11/30 05:14:36;;;;;;;6.47;2.88;;;5.90;82.80;;;;;;5157603;27;20019;-72
2021/11/30 05:17:02;;;;;;;5.22;2.97;;;5.90;82.50;;;;;;5139108;27;20030;-72
2021/11/30 05:19:28;;;;;;;7.70;3.10;;;5.90;82.60;;;;;;5157426;27;20050;-72
2021/11/30 05:21:54;;;;;;;7.28;3.50;;;5.90;82.50;;;;;;5157063;27;20086;-71
2021/11/30 05:24:20;;;;;;;10.73;3.45;;;5.90;82.10;;;;;;5138769;27;20023;-73
2021/11/30 05:26:48;;;;;;;8.27;2.90;;;5.90;82.50;;;;;;5157419;27;20379;-73
2021/11/30 05:29:14;;;;;;;5.68;3.20;;;5.90;82.50;;;;;;5157186;27;20033;-72
2021/11/30 05:31:39;;;;;;;5.50;2.95;;;5.80;82.60;;;;;;5157278;27;20035;-72
2021/11/30 05:34:05;;;;;;;5.90;3.03;;;5.80;82.60;;;;;;5157290;27;20082;-72
2021/11/30 05:36:33;;;;;;;6.75;3.03;;;5.70;82.70;;;;;;5157161;27;20026;-72
2021/11/30 05:38:59;;;;;;;7.68;3.65;;;5.70;82.80;;;;;;5156466;27;20025;-72
2021/11/30 05:41:25;;;;;;;5.50;3.25;;;5.70;83.30;;;;;;5157024;27;20475;-72
2021/11/30 05:43:52;;;;;;;6.00;3.35;;;5.70;83.60;;;;;;5157082;27;20027;-72
2021/11/30 05:46:19;;;;;;;5.88;3.15;;;5.60;83.40;;;;;;5138238;27;20050;-72
2021/11/30 05:48:45;;;;;;;7.60;4.10;;;5.70;83.40;;;;;;5156823;27;20030;-71
2021/11/30 05:51:11;;;;;;;10.30;3.70;;;5.70;83.70;;;;;;5156387;27;20041;-73
2021/11/30 05:53:37;;;;;;;6.13;3.08;;;5.70;83.90;;;;;;5156815;27;20022;-72
2021/11/30 05:56:05;;;;;;;6.47;3.20;;;5.60;83.90;;;;;;5138199;27;20030;-74
2021/11/30 05:58:35;;;;;;;5.80;3.17;;;5.60;83.70;;;;;;5156921;27;20109;-72
2021/11/30 06:01:06;;;;;;;5.35;3.55;;;5.60;83.70;;;;;;5156739;27;20062;-72
2021/11/30 06:03:35;;;;;;;10.93;3.50;;;5.60;83.50;;;;;;5156531;27;20026;-71
2021/11/30 06:06:01;;;;;;;9.73;3.35;;;5.60;83.60;;;;;;5156625;27;20463;-72
2021/11/30 06:08:27;;;;;;;7.97;3.58;;;5.60;83.50;;;;;;5156649;27;20037;-72
2021/11/30 06:10:52;;;;;;;6.18;3.28;;;5.50;83.60;;;;;;5156697;27;20121;-72
2021/11/30 06:13:18;;;;;;;6.95;3.55;;;5.50;83.40;;;;;;5137874;27;20027;-72
2021/11/30 06:15:44;;;;;;;6.15;3.35;;;5.50;83.60;;;;;;5155333;27;20023;-71
2021/11/30 06:18:10;;;;;;;11.23;5.00;;;5.50;84.20;;;;;;5156633;27;20034;-74
2021/11/30 06:20:37;;;;;;;7.00;3.53;;;5.50;84.20;;;;;;5156433;27;20019;-74
2021/11/30 06:23:02;;;;;;;6.05;3.45;;;5.50;84.40;;;;;;5156802;27;20080;-72
2021/11/30 06:25:29;;;;;;;7.82;4.25;;;5.50;84.30;;;;;;5157225;27;20080;-72
2021/11/30 06:27:54;;;;;;;6.65;3.97;;;5.50;84.20;;;;;;5156609;27;20027;-71
2021/11/30 06:30:21;;;;;;;8.43;3.70;;;5.50;84.10;;;;;;5156199;27;20041;-71
2021/11/30 06:32:46;;;;;;;5.88;3.45;;;5.40;84.20;;;;;;5156110;27;20075;-71
2021/11/30 06:35:12;;;;;;;6.75;4.10;;;5.50;84.50;;;;;;5148666;27;20059;-73
2021/11/30 06:37:38;;;;;;;6.75;3.97;;;5.60;84.50;;;;;;5135647;27;20074;-72
2021/11/30 06:40:05;;;;;;;7.43;4.22;;;5.60;84.40;;;;;;5136173;27;20055;-72
2021/11/30 06:42:31;;;;;;;9.95;4.35;;;5.60;84.20;;;;;;5135288;27;20471;-72
2021/11/30 06:44:57;;;;;;;9.77;5.05;;;5.70;84.30;;;;;;5135071;27;20023;-72
2021/11/30 06:47:23;;;;;;;10.13;4.47;;;5.80;84.00;;;;;;5134997;27;20031;-72
2021/11/30 06:49:50;;;;;;;8.95;4.72;;;5.90;83.90;;;;;;5134034;27;20103;-73
2021/11/30 06:52:15;;;;;;;10.93;4.93;;;5.90;83.90;;;;;;5134831;27;20068;-72
2021/11/30 06:54:46;;;;;;;11.48;4.45;;;6.00;83.80;;;;;;5134947;27;20031;-71
2021/11/30 06:57:12;;;;;;;8.68;4.47;;;6.00;83.30;;;;;;5134775;27;20038;-71
2021/11/30 06:59:38;;;;;;;10.95;4.95;;;6.10;83.80;;;;;;5133756;27;20023;-73
2021/11/30 07:02:05;;;;;;;11.82;4.70;;;6.20;83.60;;;;;;5143486;27;20445;-71
2021/11/30 07:04:34;;;;;;;9.93;4.70;;;6.20;83.40;;;;;;5155630;27;20110;-72
2021/11/30 07:07:45;;;;;;;11.65;4.47;;;6.30;83.30;;;;;;5155413;27;20035;-72
2021/11/30 07:15:03;;;;;;;6.93;4.07;;;6.50;83.30;;;;;;5155913;27;20050;-71
2021/11/30 07:17:29;;;;;;;10.38;4.28;;;6.50;82.80;;;;;;5154951;27;20031;-72
2021/11/30 07:19:55;;;;;;;10.40;4.00;;;6.60;83.10;;;;;;5136521;27;20038;-71
2021/11/30 07:22:21;;;;;;;7.90;3.67;;;6.70;83.20;;;;;;5132258;27;20079;-71
2021/11/30 07:24:46;;;;;;;10.13;4.90;;;6.70;82.40;;;;;;5134222;27;20113;-70
2021/11/30 07:27:12;;;;;;;7.57;3.60;;;6.80;82.30;;;;;;5134147;27;20383;-72
2021/11/30 07:29:38;;;;;;;12.93;4.35;;;6.90;81.70;;;;;;5134165;27;20023;-71
2021/11/30 07:32:04;;;;;;;9.88;4.32;;;6.90;81.90;;;;;;5132744;27;20038;-72
2021/11/30 07:34:30;;;;;;;10.70;4.95;;;7.00;81.30;;;;;;5134073;27;20046;-72
2021/11/30 07:36:56;;;;;;;11.98;4.55;;;7.00;81.40;;;;;;5132636;27;20376;-71
2021/11/30 07:39:21;;;;;;;7.78;4.30;;;7.00;81.10;;;;;;5133992;27;20023;-71
2021/11/30 07:41:47;;;;;;;10.98;4.85;;;6.90;80.90;;;;;;5134460;27;20031;-71
2021/11/30 07:44:13;;;;;;;8.88;4.80;;;6.90;80.80;;;;;;5135450;27;20094;-72
2021/11/30 07:46:39;;;;;;;13.05;5.18;;;6.90;81.00;;;;;;5132509;27;20030;-71
2021/11/30 07:49:05;;;;;;;9.15;4.78;;;6.80;81.10;;;;;;5133816;27;20030;-72
2021/11/30 07:51:32;;;;;;;9.80;4.63;;;6.80;81.20;;;;;;5133403;27;20491;-73
2021/11/30 07:53:58;;;;;;;14.15;5.55;;;6.80;80.90;;;;;;5133419;27;20090;-72
2021/11/30 07:56:24;;;;;;;16.40;5.65;;;6.90;81.40;;;;;;5132117;27;20420;-72
2021/11/30 07:58:50;;;;;;;14.13;5.07;;;6.90;81.00;;;;;;5133725;27;20027;-71
2021/11/30 08:01:16;;;;;;;9.02;5.15;;;6.80;80.90;;;;;;5133379;27;20046;-72
2021/11/30 08:03:43;;;;;;;14.23;5.60;;;6.80;81.10;;;;;;5133776;27;20390;-72
2021/11/30 08:06:10;;;;;;;10.25;5.25;;;6.80;81.10;;;;;;5132231;27;20031;-72
2021/11/30 08:08:36;;;;;;;11.65;5.43;;;6.80;81.00;;;;;;5133613;27;20066;-71
2021/11/30 08:11:03;;;;;;;12.57;5.32;;;6.80;81.00;;;;;;5133289;27;20432;-72
2021/11/30 08:13:28;;;;;;;9.90;4.80;;;6.80;80.70;;;;;;5133384;27;20019;-72
2021/11/30 08:15:54;;;;;;;10.50;5.47;;;6.80;80.90;;;;;;5133647;27;20136;-72
2021/11/30 08:18:20;;;;;;;8.32;4.22;;;6.90;80.90;;;;;;5133369;28;20451;-73
2021/11/30 08:20:46;;;;;;;10.05;4.78;;;6.90;80.30;;;;;;5133496;28;20076;-72
2021/11/30 08:23:14;;;;;;;12.65;4.65;;;6.90;80.70;;;;;;5133468;28;20035;-72
2021/11/30 08:25:46;;;;;;;9.98;5.50;;;6.90;80.70;;;;;;5134249;27;20092;-73
2021/11/30 08:28:12;;;;;;;12.70;5.25;;;6.90;80.20;;;;;;5133157;28;20015;-71
2021/11/30 08:30:38;;;;;;;15.15;5.40;;;6.90;80.70;;;;;;5133264;27;20032;-72
2021/11/30 08:33:03;;;;;;;8.88;4.80;;;6.90;80.70;;;;;;5133642;27;20023;-72
2021/11/30 08:35:29;;;;;;;11.57;4.70;;;7.00;80.80;;;;;;5133578;27;20483;-72
2021/11/30 08:37:55;;;;;;;10.40;4.88;;;7.00;80.20;;;;;;5133512;28;20061;-72
2021/11/30 08:40:21;;;;;;;8.35;4.47;;;7.10;80.00;;;;;;5133178;27;20046;-72
2021/11/30 08:42:47;;;;;;;11.23;4.15;;;7.10;79.90;;;;;;5133235;27;20481;-72
2021/11/30 08:45:13;;;;;;;7.88;3.85;;;7.20;79.80;;;;;;5133061;28;20073;-71
2021/11/30 08:47:39;;;;;;;8.68;3.55;;;7.20;78.30;;;;;;5133600;27;20027;-73
2021/11/30 08:50:15;;;;;;;10.10;3.55;;;7.30;78.40;;;;;;5133472;27;20066;-72
2021/11/30 08:52:41;;;;;;;9.77;3.88;;;7.30;78.30;;;;;;5133376;27;20035;-72
2021/11/30 08:55:09;;;;;;;9.68;3.60;;;7.30;78.70;;;;;;5133104;28;20026;-71
2021/11/30 08:57:35;;;;;;;5.45;3.17;;;7.40;77.70;;;;;;5133532;27;20027;-72
2021/11/30 09:00:06;;;;;;;8.57;3.40;;;7.50;77.50;;;;;;5133367;27;20023;-71
2021/11/30 09:02:32;;;;;;;6.93;3.60;;;7.50;76.40;;;;;;5133116;27;20020;-72
2021/11/30 09:04:57;;;;;;;8.07;3.35;;;7.50;76.70;;;;;;5132877;27;20023;-73
2021/11/30 09:07:23;;;;;;;8.25;3.50;;;7.60;75.20;;;;;;5132849;28;20019;-72
2021/11/30 09:09:49;;;;;;;10.55;3.67;;;7.60;75.10;;;;;;5132784;28;20467;-72
2021/11/30 09:12:17;;;;;;;8.13;4.40;;;7.70;75.60;;;;;;5133521;27;20027;-71
2021/11/30 09:14:45;;;;;;;8.15;3.80;;;7.70;75.70;;;;;;5137925;27;20018;-73
2021/11/30 09:17:12;;;;;;;8.15;3.90;;;7.80;75.50;;;;;;5138186;27;20102;-73
2021/11/30 09:19:38;;;;;;;6.93;3.45;;;7.90;75.70;;;;;;5135387;27;20370;-72
2021/11/30 09:22:04;;;;;;;6.65;3.58;;;8.00;75.30;;;;;;5136467;27;20047;-74
2021/11/30 09:24:31;;;;;;;9.57;3.88;;;8.10;75.00;;;;;;5136749;27;20499;-72
2021/11/30 09:26:57;;;;;;;7.60;3.63;;;8.20;75.10;;;;;;5136629;27;20027;-72
2021/11/30 09:29:23;;;;;;;6.38;3.20;;;8.30;74.30;;;;;;5136452;27;20057;-71
2021/11/30 09:31:48;;;;;;;6.15;3.55;;;8.30;72.60;;;;;;5136393;27;20066;-72
2021/11/30 09:34:14;;;;;;;4.90;2.53;;;8.40;73.00;;;;;;5137301;27;20031;-73
2021/11/30 09:36:43;;;;;;;7.32;3.38;;;8.50;71.10;;;;;;5136978;27;20038;-71
2021/11/30 09:39:09;;;;;;;7.03;2.47;;;8.60;71.30;;;;;;5137154;27;20088;-73
2021/11/30 09:41:35;;;;;;;7.10;2.80;;;8.60;70.70;;;;;;5136758;27;20031;-73
2021/11/30 09:44:02;;;;;;;8.52;3.20;;;8.70;70.20;;;;;;5135035;27;20028;-72
2021/11/30 09:46:27;;;;;;;7.63;3.20;;;8.80;69.80;;;;;;5134971;27;20385;-73
2021/11/30 09:48:53;;;;;;;9.07;2.95;;;8.80;70.10;;;;;;5136535;27;20031;-72
2021/11/30 09:51:19;;;;;;;8.63;4.00;;;9.00;69.50;;;;;;5136233;27;20035;-73
2021/11/30 09:53:45;;;;;;;9.38;3.47;;;9.00;69.60;;;;;;5136638;27;20357;-72
2021/11/30 09:56:11;;;;;;;6.97;2.45;;;9.10;68.10;;;;;;5136070;27;20091;-71
2021/11/30 09:58:37;;;;;;;6.88;2.92;;;9.20;68.20;;;;;;5136161;27;20480;-71
2021/11/30 10:01:06;;;;;;;6.28;2.58;;;9.30;68.20;;;;;;5136058;27;20030;-72
2021/11/30 10:03:32;;;;;;;7.00;2.30;;;9.30;68.20;;;;;;5134776;27;20027;-72
2021/11/30 10:05:58;;;;;;;4.20;2.33;;;9.40;67.80;;;;;;5136490;27;20140;-72
2021/11/30 10:08:32;;;;;;;5.95;2.70;;;9.50;65.90;;;;;;5134453;27;20387;-72
2021/11/30 10:10:59;;;;;;;6.15;3.40;;;9.60;66.80;;;;;;5135338;27;20043;-73
2021/11/30 10:13:26;;;;;;;6.70;2.72;;;9.70;66.70;;;;;;5135834;27;20514;-72
2021/11/30 10:16:01;;;;;;;5.25;2.83;;;9.70;65.10;;;;;;5136238;27;20034;-72
2021/11/30 10:18:29;;;;;;;5.35;2.75;;;9.80;65.00;;;;;;5136066;27;20068;-73
2021/11/30 10:21:20;;;;;;;4.50;2.20;;;9.90;65.10;;;;;;5135664;27;20034;-71
2021/11/30 10:23:56;;;;;;;5.80;2.50;;;10.00;63.10;;;;;;5136007;27;20031;-72
2021/11/30 10:26:36;;;;;;;5.22;2.33;;;10.10;61.90;;;;;;5135356;27;20395;-73
2021/11/30 10:29:07;;;;;;;4.38;1.92;;;10.20;62.00;;;;;;5135664;27;20023;-71
2021/11/30 10:31:46;;;;;;;4.68;2.38;;;10.30;61.60;;;;;;5135517;27;20127;-71
2021/11/30 10:34:16;;;;;;;4.20;2.10;;;10.30;60.50;;;;;;5135733;27;20098;-71
2021/11/30 10:36:49;;;;;;;6.97;2.38;;;10.30;59.00;;;;;;5135226;27;20034;-72
2021/11/30 10:39:16;;;;;;;5.18;2.03;;;10.40;59.40;;;;;;5135861;27;20030;-73
2021/11/30 10:41:42;;;;;;;7.22;2.03;;;10.40;57.60;;;;;;5135285;27;20023;-71
2021/11/30 10:44:08;;;;;;;5.85;2.70;;;10.50;57.00;;;;;;5135211;27;20034;-71
2021/11/30 10:46:35;;;;;;;7.72;2.55;;;10.60;58.50;;;;;;5135216;27;20022;-70
2021/11/30 10:49:03;;;;;;;7.32;2.70;;;10.60;58.00;;;;;;5134355;27;20447;-72
2021/11/30 10:51:44;;;;;;;7.35;2.10;;;10.70;58.10;;;;;;5134953;27;20031;-72
2021/11/30 10:54:10;;;;;;;7.38;2.45;;;10.80;57.30;;;;;;5135300;27;20353;-71
2021/11/30 10:56:36;;;;;;;5.40;2.40;;;10.80;56.80;;;;;;5135095;27;20038;-72
2021/11/30 10:59:02;;;;;;;7.82;2.50;;;10.90;56.50;;;;;;5135297;27;20049;-72
2021/11/30 11:01:28;;;;;;;4.40;2.20;;;10.90;56.00;;;;;;5134832;27;20027;-71
2021/11/30 11:04:03;;;;;;;4.85;2.30;;;10.90;55.40;;;;;;5134736;27;20373;-71
2021/11/30 11:06:30;;;;;;;4.57;2.55;;;11.00;55.50;;;;;;5134878;27;20111;-72
2021/11/30 11:09:05;;;;;;;7.18;2.15;;;11.00;55.30;;;;;;5134816;27;20055;-72
2021/11/30 11:11:35;;;;;;;6.15;1.98;;;11.10;56.40;;;;;;5134715;27;20062;-72
2021/11/30 11:14:16;;;;;;;4.20;2.10;;;11.20;54.80;;;;;;5133464;27;20126;-73
2021/11/30 11:16:42;;;;;;;6.10;2.17;;;11.20;54.40;;;;;;5134744;27;20103;-71
2021/11/30 11:19:09;;;;;;;5.63;1.92;;;11.20;53.70;;;;;;5135346;27;20019;-72
2021/11/30 11:21:41;;;;;;;3.97;1.92;;;11.30;54.00;;;;;;5134167;27;20380;-70
2021/11/30 11:24:19;;;;;;;5.93;1.95;;;11.30;53.20;;;;;;5134808;27;20019;-73
2021/11/30 11:26:51;;;;;;;5.13;1.77;;;11.40;52.20;;;;;;5132948;27;20030;-74
2021/11/30 11:29:26;;;;;;;3.28;1.80;;;11.50;52.40;;;;;;5134590;27;20027;-72
2021/11/30 11:31:59;;;;;;;5.72;2.10;;;11.60;52.40;;;;;;5134029;27;20035;-73
2021/11/30 11:34:27;;;;;;;6.38;2.20;;;11.60;51.20;;;;;;5134149;27;20203;-72
2021/11/30 11:36:55;;;;;;;8.52;2.72;;;11.60;50.80;;;;;;5133589;27;20023;-71
2021/11/30 11:39:23;;;;;;;6.13;2.83;;;11.70;51.10;;;;;;5136111;27;20015;-71
2021/11/30 11:41:57;;;;;;;4.47;1.80;;;11.80;51.30;;;;;;5134138;27;20041;-72
2021/11/30 11:44:24;;;;;;;5.22;2.10;;;11.90;50.10;;;;;;5133971;27;20031;-71
2021/11/30 11:46:53;;;;;;;7.10;2.40;;;11.90;49.60;;;;;;5135026;27;20043;-72
2021/11/30 11:49:22;;;;;;;5.35;2.10;;;12.00;50.00;;;;;;5134216;27;20045;-72
2021/11/30 11:51:49;;;;;;;3.65;1.75;;;12.00;50.00;;;;;;5134511;27;20114;-71
2021/11/30 11:54:32;;;;;;;7.18;2.15;;;12.00;49.80;;;;;;5134125;27;20019;-71
2021/11/30 11:57:02;;;;;;;6.13;2.28;;;12.10;49.40;;;;;;5133889;27;20034;-71
2021/11/30 11:59:34;;;;;;;4.65;1.95;;;12.10;49.60;;;;;;5133921;27;20419;-72
2021/11/30 12:02:20;;;;;;;7.95;2.30;;;12.20;48.50;;;;;;5133853;27;20064;-71
2021/11/30 12:04:55;;;;;;;7.65;1.70;;;12.20;46.30;;;;;;5134013;27;20425;-71
2021/11/30 12:07:23;;;;;;;5.43;2.13;;;12.30;46.70;;;;;;5132669;27;20011;-72
2021/11/30 12:10:09;;;;;;;3.08;1.67;;;12.30;44.40;;;;;;5133828;27;20023;-72
2021/11/30 12:12:35;;;;;;;3.58;1.50;;;12.30;44.40;;;;;;5131660;27;20192;-71
2021/11/30 12:15:02;;;;;;;3.95;2.00;;;12.40;44.70;;;;;;5133603;27;20055;-72
2021/11/30 12:17:29;;;;;;;3.38;1.60;;;12.40;43.40;;;;;;5133497;27;20034;-72
2021/11/30 12:20:02;;;;;;;6.13;1.60;;;12.40;43.00;;;;;;5133488;27;20464;-72
2021/11/30 12:22:51;;;;;;;4.83;2.00;;;12.40;42.60;;;;;;5131852;28;20073;-73
2021/11/30 12:25:26;;;;;;;5.47;1.65;;;12.50;44.90;;;;;;5133695;27;20508;-72
2021/11/30 12:27:53;;;;;;;4.28;1.50;;;12.50;43.70;;;;;;5133789;27;20068;-71
2021/11/30 12:30:37;;;;;;;1.58;1.08;;;12.60;42.50;;;;;;5133653;27;20031;-73
2021/11/30 12:33:18;;;;;;;4.25;1.48;;;12.60;42.70;;;;;;5131971;28;20027;-74
2021/11/30 12:35:58;;;;;;;2.47;1.20;;;12.70;42.30;;;;;;5133898;28;20028;-72
2021/11/30 12:38:32;;;;;;;6.10;1.83;;;12.70;41.50;;;;;;5132232;28;20019;-73
2021/11/30 12:41:17;;;;;;;4.60;1.60;;;12.70;41.20;;;;;;5132178;28;20472;-71
2021/11/30 12:43:45;;;;;;;5.20;1.90;;;12.80;41.50;;;;;;5133216;28;20030;-72
2021/11/30 12:46:12;;;;;;;3.58;1.50;;;12.80;41.40;;;;;;5132122;27;20053;-72
2021/11/30 12:48:40;;;;;;;4.25;1.60;;;12.90;41.80;;;;;;5136201;27;20031;-71
2021/11/30 12:51:27;;;;;;;4.53;1.70;;;12.80;39.80;;;;;;5136183;27;20088;-72
2021/11/30 12:53:56;;;;;;;2.42;1.52;;;12.90;39.60;;;;;;5137337;27;20467;-72
2021/11/30 12:56:49;;;;;;;6.05;1.70;;;12.90;39.10;;;;;;5137664;27;20057;-72
2021/11/30 12:59:37;;;;;;;4.32;1.50;;;12.90;39.20;;;;;;5137324;27;20460;-71
2021/11/30 13:02:22;;;;;;;3.70;1.77;;;12.90;39.30;;;;;;5136916;27;20034;-72
2021/11/30 13:04:52;;;;;;;2.17;1.38;;;13.00;39.20;;;;;;5137355;27;20027;-72
2021/11/30 13:07:19;;;;;;;3.70;1.50;;;13.00;39.10;;;;;;5136693;27;20494;-72
2021/11/30 13:09:46;;;;;;;13.23;7.38;;;13.00;38.50;;;;;;5137332;27;20530;-71
2021/11/30 13:12:19;;;;;;;6.43;2.70;;;13.00;38.70;;;;;;5137274;27;20023;-72
2021/11/30 13:14:46;;;;;;;5.10;1.70;;;13.00;38.90;;;;;;5137399;27;20031;-73
2021/11/30 13:17:12;;;;;;;4.10;1.52;;;13.00;38.90;;;;;;5137019;27;20050;-71